Terminal Aerodrome Forecast
Issued by NWS

Home | Current Version | Previous Version | Text Only | Print | Product List | Glossary On
Versions: 1 2 3 4 5 6 7 8 9 10 11 12 13 14 15 16 17 18 19 20 21
000
FTUS43 KSGF 261723
TAFJLN
TAF
KJLN 261723Z 2618/2718 18014KT P6SM BKN015
     FM270000 16013KT P6SM BKN040
      TEMPO 2700/2704 -TSRA BKN040CB
     FM270800 17012KT P6SM -SHRA OVC090 WS020/19040KT
     FM270900 17012KT P6SM -SHRA OVC060
     FM271200 17011KT P6SM BKN150
     FM271400 19014G23KT P6SM SCT060=

USA.gov is the U.S. government's official web portal to all federal, state and local government web resources and services.